sensor_id;sensor_type;location;lat;lon;timestamp;P1;P2;P0
82622;PMS5003;72291;55.002;-1.592;2023-12-07T00:01:46;7;7;
82622;PMS5003;72291;55.002;-1.592;2023-12-07T00:04:11;7;6;
82622;PMS5003;72291;55.002;-1.592;2023-12-07T00:06:36;8;7;
82622;PMS5003;72291;55.002;-1.592;2023-12-07T00:09:02;7;6;
82622;PMS5003;72291;55.002;-1.592;2023-12-07T00:11:27;5;5;
82622;PMS5003;72291;55.002;-1.592;2023-12-07T00:13:52;7;6;
82622;PMS5003;72291;55.002;-1.592;2023-12-07T00:16:17;7;7;
82622;PMS5003;72291;55.002;-1.592;2023-12-07T00:18:43;10;9;
82622;PMS5003;72291;55.002;-1.592;2023-12-07T00:21:08;9;9;
82622;PMS5003;72291;55.002;-1.592;2023-12-07T00:23:33;9;9;
82622;PMS5003;72291;55.002;-1.592;2023-12-07T00:25:59;10;10;
82622;PMS5003;72291;55.002;-1.592;2023-12-07T00:28:24;11;10;
82622;PMS5003;72291;55.002;-1.592;2023-12-07T00:30:49;10;8;
82622;PMS5003;72291;55.002;-1.592;2023-12-07T00:33:15;13;13;
82622;PMS5003;72291;55.002;-1.592;2023-12-07T00:35:40;11;10;
82622;PMS5003;72291;55.002;-1.592;2023-12-07T00:38:05;10;9;
82622;PMS5003;72291;55.002;-1.592;2023-12-07T00:40:30;13;11;
82622;PMS5003;72291;55.002;-1.592;2023-12-07T00:42:55;11;11;
82622;PMS5003;72291;55.002;-1.592;2023-12-07T00:45:21;11;10;
82622;PMS5003;72291;55.002;-1.592;2023-12-07T00:47:46;7;7;
82622;PMS5003;72291;55.002;-1.592;2023-12-07T00:50:12;9;7;
82622;PMS5003;72291;55.002;-1.592;2023-12-07T00:52:37;10;7;
82622;PMS5003;72291;55.002;-1.592;2023-12-07T00:55:03;6;6;
82622;PMS5003;72291;55.002;-1.592;2023-12-07T00:57:28;9;8;
82622;PMS5003;72291;55.002;-1.592;2023-12-07T00:59:53;7;7;
82622;PMS5003;72291;55.002;-1.592;2023-12-07T01:02:18;10;8;
82622;PMS5003;72291;55.002;-1.592;2023-12-07T01:04:43;10;9;
82622;PMS5003;72291;55.002;-1.592;2023-12-07T01:07:09;9;6;
82622;PMS5003;72291;55.002;-1.592;2023-12-07T01:09:34;8;6;
82622;PMS5003;72291;55.002;-1.592;2023-12-07T01:11:59;10;10;
82622;PMS5003;72291;55.002;-1.592;2023-12-07T01:14:24;8;7;
82622;PMS5003;72291;55.002;-1.592;2023-12-07T01:16:49;8;7;
82622;PMS5003;72291;55.002;-1.592;2023-12-07T01:19:15;7;6;
82622;PMS5003;72291;55.002;-1.592;2023-12-07T01:21:40;5;5;
82622;PMS5003;72291;55.002;-1.592;2023-12-07T01:24:05;6;5;
82622;PMS5003;72291;55.002;-1.592;2023-12-07T01:26:30;5;5;
82622;PMS5003;72291;55.002;-1.592;2023-12-07T01:28:56;5;5;
82622;PMS5003;72291;55.002;-1.592;2023-12-07T01:31:21;7;6;
82622;PMS5003;72291;55.002;-1.592;2023-12-07T01:33:46;7;6;
82622;PMS5003;72291;55.002;-1.592;2023-12-07T01:36:12;6;6;
82622;PMS5003;72291;55.002;-1.592;2023-12-07T01:38:37;5;5;
82622;PMS5003;72291;55.002;-1.592;2023-12-07T01:41:02;6;6;
82622;PMS5003;72291;55.002;-1.592;2023-12-07T01:43:27;6;6;
82622;PMS5003;72291;55.002;-1.592;2023-12-07T01:45:54;7;7;
82622;PMS5003;72291;55.002;-1.592;2023-12-07T01:48:18;5;5;
82622;PMS5003;72291;55.002;-1.592;2023-12-07T01:50:43;6;6;
82622;PMS5003;72291;55.002;-1.592;2023-12-07T01:53:09;6;6;
82622;PMS5003;72291;55.002;-1.592;2023-12-07T01:55:34;6;5;
82622;PMS5003;72291;55.002;-1.592;2023-12-07T01:57:59;5;4;
82622;PMS5003;72291;55.002;-1.592;2023-12-07T02:00:24;8;6;
82622;PMS5003;72291;55.002;-1.592;2023-12-07T02:02:50;5;5;
82622;PMS5003;72291;55.002;-1.592;2023-12-07T02:05:15;3;3;
82622;PMS5003;72291;55.002;-1.592;2023-12-07T02:07:41;4;3;
82622;PMS5003;72291;55.002;-1.592;2023-12-07T02:10:07;4;4;
82622;PMS5003;72291;55.002;-1.592;2023-12-07T02:12:32;5;5;
82622;PMS5003;72291;55.002;-1.592;2023-12-07T02:14:57;6;4;
82622;PMS5003;72291;55.002;-1.592;2023-12-07T02:17:24;4;3;
82622;PMS5003;72291;55.002;-1.592;2023-12-07T02:19:52;4;4;
82622;PMS5003;72291;55.002;-1.592;2023-12-07T02:22:22;3;3;
82622;PMS5003;72291;55.002;-1.592;2023-12-07T02:24:39;7;5;
82622;PMS5003;72291;55.002;-1.592;2023-12-07T02:27:04;5;4;
82622;PMS5003;72291;55.002;-1.592;2023-12-07T02:29:29;4;4;
82622;PMS5003;72291;55.002;-1.592;2023-12-07T02:31:55;3;3;
82622;PMS5003;72291;55.002;-1.592;2023-12-07T02:34:20;5;4;
82622;PMS5003;72291;55.002;-1.592;2023-12-07T02:36:45;6;5;
82622;PMS5003;72291;55.002;-1.592;2023-12-07T02:39:10;5;4;
82622;PMS5003;72291;55.002;-1.592;2023-12-07T02:41:36;5;5;
82622;PMS5003;72291;55.002;-1.592;2023-12-07T02:44:01;3;3;
82622;PMS5003;72291;55.002;-1.592;2023-12-07T02:46:26;5;5;
82622;PMS5003;72291;55.002;-1.592;2023-12-07T02:48:52;5;4;
82622;PMS5003;72291;55.002;-1.592;2023-12-07T02:51:17;6;6;
82622;PMS5003;72291;55.002;-1.592;2023-12-07T02:53:42;8;6;
82622;PMS5003;72291;55.002;-1.592;2023-12-07T02:56:08;5;5;
82622;PMS5003;72291;55.002;-1.592;2023-12-07T02:58:33;4;4;
82622;PMS5003;72291;55.002;-1.592;2023-12-07T03:00:58;6;4;
82622;PMS5003;72291;55.002;-1.592;2023-12-07T03:03:30;6;5;
82622;PMS5003;72291;55.002;-1.592;2023-12-07T03:05:49;4;4;
82622;PMS5003;72291;55.002;-1.592;2023-12-07T03:10:39;5;5;
82622;PMS5003;72291;55.002;-1.592;2023-12-07T03:13:04;6;6;
82622;PMS5003;72291;55.002;-1.592;2023-12-07T03:15:29;4;4;
82622;PMS5003;72291;55.002;-1.592;2023-12-07T03:17:55;5;5;
82622;PMS5003;72291;55.002;-1.592;2023-12-07T03:20:20;6;3;
82622;PMS5003;72291;55.002;-1.592;2023-12-07T03:22:45;6;6;
82622;PMS5003;72291;55.002;-1.592;2023-12-07T03:25:10;5;4;
82622;PMS5003;72291;55.002;-1.592;2023-12-07T03:27:35;5;5;
82622;PMS5003;72291;55.002;-1.592;2023-12-07T03:30:00;8;7;
82622;PMS5003;72291;55.002;-1.592;2023-12-07T03:32:26;8;7;
82622;PMS5003;72291;55.002;-1.592;2023-12-07T03:34:52;8;8;
82622;PMS5003;72291;55.002;-1.592;2023-12-07T03:37:17;7;5;
82622;PMS5003;72291;55.002;-1.592;2023-12-07T03:39:42;5;5;
82622;PMS5003;72291;55.002;-1.592;2023-12-07T03:42:07;7;5;
82622;PMS5003;72291;55.002;-1.592;2023-12-07T03:44:32;7;6;
82622;PMS5003;72291;55.002;-1.592;2023-12-07T03:46:58;6;6;
82622;PMS5003;72291;55.002;-1.592;2023-12-07T03:49:23;6;6;
82622;PMS5003;72291;55.002;-1.592;2023-12-07T03:51:48;5;5;
82622;PMS5003;72291;55.002;-1.592;2023-12-07T03:54:13;5;4;
82622;PMS5003;72291;55.002;-1.592;2023-12-07T03:56:39;5;5;
82622;PMS5003;72291;55.002;-1.592;2023-12-07T03:59:05;6;5;
82622;PMS5003;72291;55.002;-1.592;2023-12-07T04:01:30;5;5;
82622;PMS5003;72291;55.002;-1.592;2023-12-07T04:03:55;6;5;
82622;PMS5003;72291;55.002;-1.592;2023-12-07T04:06:20;6;5;
82622;PMS5003;72291;55.002;-1.592;2023-12-07T04:08:45;5;5;
82622;PMS5003;72291;55.002;-1.592;2023-12-07T04:11:11;8;7;
82622;PMS5003;72291;55.002;-1.592;2023-12-07T04:13:36;7;6;
82622;PMS5003;72291;55.002;-1.592;2023-12-07T04:16:01;9;8;
82622;PMS5003;72291;55.002;-1.592;2023-12-07T04:18:26;9;7;
82622;PMS5003;72291;55.002;-1.592;2023-12-07T04:20:52;5;5;
82622;PMS5003;72291;55.002;-1.592;2023-12-07T04:23:17;9;9;
82622;PMS5003;72291;55.002;-1.592;2023-12-07T04:25:43;10;8;
82622;PMS5003;72291;55.002;-1.592;2023-12-07T04:28:08;10;8;
82622;PMS5003;72291;55.002;-1.592;2023-12-07T04:30:33;8;7;
82622;PMS5003;72291;55.002;-1.592;2023-12-07T04:32:58;9;8;
82622;PMS5003;72291;55.002;-1.592;2023-12-07T04:35:24;8;7;
82622;PMS5003;72291;55.002;-1.592;2023-12-07T04:37:49;5;5;
82622;PMS5003;72291;55.002;-1.592;2023-12-07T04:40:14;7;6;
82622;PMS5003;72291;55.002;-1.592;2023-12-07T04:42:39;8;8;
82622;PMS5003;72291;55.002;-1.592;2023-12-07T04:45:05;8;6;
82622;PMS5003;72291;55.002;-1.592;2023-12-07T04:47:30;8;6;
82622;PMS5003;72291;55.002;-1.592;2023-12-07T04:49:55;6;6;
82622;PMS5003;72291;55.002;-1.592;2023-12-07T04:52:20;6;5;
82622;PMS5003;72291;55.002;-1.592;2023-12-07T04:54:46;7;6;
82622;PMS5003;72291;55.002;-1.592;2023-12-07T04:57:11;7;6;
82622;PMS5003;72291;55.002;-1.592;2023-12-07T04:59:36;5;5;
82622;PMS5003;72291;55.002;-1.592;2023-12-07T05:02:01;8;7;
82622;PMS5003;72291;55.002;-1.592;2023-12-07T05:04:27;9;9;
82622;PMS5003;72291;55.002;-1.592;2023-12-07T05:06:52;5;5;
82622;PMS5003;72291;55.002;-1.592;2023-12-07T05:09:17;8;8;
82622;PMS5003;72291;55.002;-1.592;2023-12-07T05:11:42;7;7;
82622;PMS5003;72291;55.002;-1.592;2023-12-07T05:14:08;9;8;
82622;PMS5003;72291;55.002;-1.592;2023-12-07T05:16:33;12;8;
82622;PMS5003;72291;55.002;-1.592;2023-12-07T05:18:58;11;9;
82622;PMS5003;72291;55.002;-1.592;2023-12-07T05:21:23;12;10;
82622;PMS5003;72291;55.002;-1.592;2023-12-07T05:23:48;10;8;
82622;PMS5003;72291;55.002;-1.592;2023-12-07T05:26:14;12;12;
82622;PMS5003;72291;55.002;-1.592;2023-12-07T05:28:39;12;10;
82622;PMS5003;72291;55.002;-1.592;2023-12-07T05:31:15;9;9;
82622;PMS5003;72291;55.002;-1.592;2023-12-07T05:33:31;11;10;
82622;PMS5003;72291;55.002;-1.592;2023-12-07T05:35:55;11;10;
82622;PMS5003;72291;55.002;-1.592;2023-12-07T05:38:20;12;11;
82622;PMS5003;72291;55.002;-1.592;2023-12-07T05:40:46;10;9;
82622;PMS5003;72291;55.002;-1.592;2023-12-07T05:43:11;10;10;
82622;PMS5003;72291;55.002;-1.592;2023-12-07T05:45:36;12;11;
82622;PMS5003;72291;55.002;-1.592;2023-12-07T05:48:02;13;10;
82622;PMS5003;72291;55.002;-1.592;2023-12-07T05:50:28;13;13;
82622;PMS5003;72291;55.002;-1.592;2023-12-07T05:52:53;10;10;
82622;PMS5003;72291;55.002;-1.592;2023-12-07T05:55:19;11;11;
82622;PMS5003;72291;55.002;-1.592;2023-12-07T05:57:45;10;10;
82622;PMS5003;72291;55.002;-1.592;2023-12-07T06:00:12;15;14;
82622;PMS5003;72291;55.002;-1.592;2023-12-07T06:02:36;12;11;
82622;PMS5003;72291;55.002;-1.592;2023-12-07T06:05:01;9;9;
82622;PMS5003;72291;55.002;-1.592;2023-12-07T06:07:27;10;10;
82622;PMS5003;72291;55.002;-1.592;2023-12-07T06:09:52;9;9;
82622;PMS5003;72291;55.002;-1.592;2023-12-07T06:12:18;9;8;
82622;PMS5003;72291;55.002;-1.592;2023-12-07T06:14:43;15;10;
82622;PMS5003;72291;55.002;-1.592;2023-12-07T06:17:08;12;11;
82622;PMS5003;72291;55.002;-1.592;2023-12-07T06:19:34;13;13;
82622;PMS5003;72291;55.002;-1.592;2023-12-07T06:21:59;14;12;
82622;PMS5003;72291;55.002;-1.592;2023-12-07T06:24:25;9;9;
82622;PMS5003;72291;55.002;-1.592;2023-12-07T06:26:50;11;10;
82622;PMS5003;72291;55.002;-1.592;2023-12-07T06:29:15;10;9;
82622;PMS5003;72291;55.002;-1.592;2023-12-07T06:31:42;11;10;
82622;PMS5003;72291;55.002;-1.592;2023-12-07T06:34:06;10;8;
82622;PMS5003;72291;55.002;-1.592;2023-12-07T06:36:31;10;9;
82622;PMS5003;72291;55.002;-1.592;2023-12-07T06:38:57;15;14;
82622;PMS5003;72291;55.002;-1.592;2023-12-07T06:41:22;11;11;
82622;PMS5003;72291;55.002;-1.592;2023-12-07T06:43:47;13;12;
82622;PMS5003;72291;55.002;-1.592;2023-12-07T06:46:13;15;11;
82622;PMS5003;72291;55.002;-1.592;2023-12-07T06:48:38;12;12;
82622;PMS5003;72291;55.002;-1.592;2023-12-07T06:51:04;12;12;
82622;PMS5003;72291;55.002;-1.592;2023-12-07T06:53:29;13;13;
82622;PMS5003;72291;55.002;-1.592;2023-12-07T06:55:55;13;10;
82622;PMS5003;72291;55.002;-1.592;2023-12-07T06:58:20;13;12;
82622;PMS5003;72291;55.002;-1.592;2023-12-07T07:00:46;11;10;
82622;PMS5003;72291;55.002;-1.592;2023-12-07T07:03:11;13;10;
82622;PMS5003;72291;55.002;-1.592;2023-12-07T07:05:36;13;10;
82622;PMS5003;72291;55.002;-1.592;2023-12-07T07:08:01;14;14;
82622;PMS5003;72291;55.002;-1.592;2023-12-07T07:10:26;11;10;
82622;PMS5003;72291;55.002;-1.592;2023-12-07T07:12:52;15;12;
82622;PMS5003;72291;55.002;-1.592;2023-12-07T07:15:18;13;12;
82622;PMS5003;72291;55.002;-1.592;2023-12-07T07:17:43;14;14;
82622;PMS5003;72291;55.002;-1.592;2023-12-07T07:20:09;12;10;
82622;PMS5003;72291;55.002;-1.592;2023-12-07T07:22:35;13;12;
82622;PMS5003;72291;55.002;-1.592;2023-12-07T07:25:01;11;11;
82622;PMS5003;72291;55.002;-1.592;2023-12-07T07:27:25;13;12;
82622;PMS5003;72291;55.002;-1.592;2023-12-07T07:29:50;15;11;
82622;PMS5003;72291;55.002;-1.592;2023-12-07T07:32:17;12;10;
82622;PMS5003;72291;55.002;-1.592;2023-12-07T07:34:41;10;10;
82622;PMS5003;72291;55.002;-1.592;2023-12-07T07:37:08;14;12;
82622;PMS5003;72291;55.002;-1.592;2023-12-07T07:39:32;15;15;
82622;PMS5003;72291;55.002;-1.592;2023-12-07T07:41:58;13;12;
82622;PMS5003;72291;55.002;-1.592;2023-12-07T07:44:23;11;11;
82622;PMS5003;72291;55.002;-1.592;2023-12-07T07:46:49;10;9;
82622;PMS5003;72291;55.002;-1.592;2023-12-07T07:49:14;13;12;
82622;PMS5003;72291;55.002;-1.592;2023-12-07T07:51:39;10;10;
82622;PMS5003;72291;55.002;-1.592;2023-12-07T07:54:05;13;13;
82622;PMS5003;72291;55.002;-1.592;2023-12-07T07:56:30;12;11;
82622;PMS5003;72291;55.002;-1.592;2023-12-07T07:58:55;15;9;
82622;PMS5003;72291;55.002;-1.592;2023-12-07T08:01:21;13;11;
82622;PMS5003;72291;55.002;-1.592;2023-12-07T08:03:46;10;9;
82622;PMS5003;72291;55.002;-1.592;2023-12-07T08:06:11;10;10;
82622;PMS5003;72291;55.002;-1.592;2023-12-07T08:08:36;10;10;
82622;PMS5003;72291;55.002;-1.592;2023-12-07T08:11:01;12;11;
82622;PMS5003;72291;55.002;-1.592;2023-12-07T08:13:27;11;10;
82622;PMS5003;72291;55.002;-1.592;2023-12-07T08:15:52;12;10;
82622;PMS5003;72291;55.002;-1.592;2023-12-07T08:18:18;10;9;
82622;PMS5003;72291;55.002;-1.592;2023-12-07T08:20:44;7;7;
82622;PMS5003;72291;55.002;-1.592;2023-12-07T08:23:08;10;9;
82622;PMS5003;72291;55.002;-1.592;2023-12-07T08:25:33;8;7;
82622;PMS5003;72291;55.002;-1.592;2023-12-07T08:27:58;8;8;
82622;PMS5003;72291;55.002;-1.592;2023-12-07T08:30:24;11;11;
82622;PMS5003;72291;55.002;-1.592;2023-12-07T08:32:49;10;8;
82622;PMS5003;72291;55.002;-1.592;2023-12-07T08:35:16;10;9;
82622;PMS5003;72291;55.002;-1.592;2023-12-07T08:37:40;7;7;
82622;PMS5003;72291;55.002;-1.592;2023-12-07T08:40:06;14;11;
82622;PMS5003;72291;55.002;-1.592;2023-12-07T08:42:31;10;9;
82622;PMS5003;72291;55.002;-1.592;2023-12-07T08:44:56;9;8;
82622;PMS5003;72291;55.002;-1.592;2023-12-07T08:47:21;8;7;
82622;PMS5003;72291;55.002;-1.592;2023-12-07T08:49:46;10;8;
82622;PMS5003;72291;55.002;-1.592;2023-12-07T08:52:11;9;8;
82622;PMS5003;72291;55.002;-1.592;2023-12-07T08:54:37;9;7;
82622;PMS5003;72291;55.002;-1.592;2023-12-07T08:57:02;9;7;
82622;PMS5003;72291;55.002;-1.592;2023-12-07T08:59:32;7;7;
82622;PMS5003;72291;55.002;-1.592;2023-12-07T09:01:53;10;10;
82622;PMS5003;72291;55.002;-1.592;2023-12-07T09:04:18;10;9;
82622;PMS5003;72291;55.002;-1.592;2023-12-07T09:06:43;9;7;
82622;PMS5003;72291;55.002;-1.592;2023-12-07T09:09:08;10;9;
82622;PMS5003;72291;55.002;-1.592;2023-12-07T09:11:34;9;9;
82622;PMS5003;72291;55.002;-1.592;2023-12-07T09:13:59;9;8;
82622;PMS5003;72291;55.002;-1.592;2023-12-07T09:16:24;9;8;
82622;PMS5003;72291;55.002;-1.592;2023-12-07T09:18:50;10;9;
82622;PMS5003;72291;55.002;-1.592;2023-12-07T09:21:19;12;10;
82622;PMS5003;72291;55.002;-1.592;2023-12-07T09:23:41;12;11;
82622;PMS5003;72291;55.002;-1.592;2023-12-07T09:26:06;9;8;
82622;PMS5003;72291;55.002;-1.592;2023-12-07T09:28:31;9;8;
82622;PMS5003;72291;55.002;-1.592;2023-12-07T09:30:56;10;9;
82622;PMS5003;72291;55.002;-1.592;2023-12-07T09:33:22;8;8;
82622;PMS5003;72291;55.002;-1.592;2023-12-07T09:35:47;9;8;
82622;PMS5003;72291;55.002;-1.592;2023-12-07T09:38:13;10;9;
82622;PMS5003;72291;55.002;-1.592;2023-12-07T09:40:38;9;9;
82622;PMS5003;72291;55.002;-1.592;2023-12-07T09:43:04;12;12;
82622;PMS5003;72291;55.002;-1.592;2023-12-07T09:45:29;14;13;
82622;PMS5003;72291;55.002;-1.592;2023-12-07T09:47:55;9;9;
82622;PMS5003;72291;55.002;-1.592;2023-12-07T09:50:21;12;12;
82622;PMS5003;72291;55.002;-1.592;2023-12-07T09:52:46;9;9;
82622;PMS5003;72291;55.002;-1.592;2023-12-07T09:55:11;11;11;
82622;PMS5003;72291;55.002;-1.592;2023-12-07T09:57:37;16;13;
82622;PMS5003;72291;55.002;-1.592;2023-12-07T10:00:03;11;11;
82622;PMS5003;72291;55.002;-1.592;2023-12-07T10:02:29;15;14;
82622;PMS5003;72291;55.002;-1.592;2023-12-07T10:07:19;11;11;
82622;PMS5003;72291;55.002;-1.592;2023-12-07T10:09:45;13;12;
82622;PMS5003;72291;55.002;-1.592;2023-12-07T10:12:10;13;12;
82622;PMS5003;72291;55.002;-1.592;2023-12-07T10:14:37;12;11;
82622;PMS5003;72291;55.002;-1.592;2023-12-07T10:17:01;12;12;
82622;PMS5003;72291;55.002;-1.592;2023-12-07T10:19:26;15;14;
82622;PMS5003;72291;55.002;-1.592;2023-12-07T10:21:52;15;14;
82622;PMS5003;72291;55.002;-1.592;2023-12-07T10:24:18;15;14;
82622;PMS5003;72291;55.002;-1.592;2023-12-07T10:26:43;18;16;
82622;PMS5003;72291;55.002;-1.592;2023-12-07T10:29:09;15;13;
82622;PMS5003;72291;55.002;-1.592;2023-12-07T10:31:34;12;12;
82622;PMS5003;72291;55.002;-1.592;2023-12-07T10:33:59;11;11;
82622;PMS5003;72291;55.002;-1.592;2023-12-07T10:38:50;15;14;
82622;PMS5003;72291;55.002;-1.592;2023-12-07T10:41:15;10;10;
82622;PMS5003;72291;55.002;-1.592;2023-12-07T10:43:42;10;10;
82622;PMS5003;72291;55.002;-1.592;2023-12-07T10:46:06;12;12;
82622;PMS5003;72291;55.002;-1.592;2023-12-07T10:48:32;11;10;
82622;PMS5003;72291;55.002;-1.592;2023-12-07T10:50:58;12;12;
82622;PMS5003;72291;55.002;-1.592;2023-12-07T10:53:25;11;10;
82622;PMS5003;72291;55.002;-1.592;2023-12-07T10:55:50;14;12;
82622;PMS5003;72291;55.002;-1.592;2023-12-07T10:58:13;10;10;
82622;PMS5003;72291;55.002;-1.592;2023-12-07T11:00:40;8;8;
82622;PMS5003;72291;55.002;-1.592;2023-12-07T11:03:05;10;9;
82622;PMS5003;72291;55.002;-1.592;2023-12-07T11:05:29;15;14;
82622;PMS5003;72291;55.002;-1.592;2023-12-07T11:07:57;12;12;
82622;PMS5003;72291;55.002;-1.592;2023-12-07T11:10:22;10;10;
82622;PMS5003;72291;55.002;-1.592;2023-12-07T11:12:48;12;12;
82622;PMS5003;72291;55.002;-1.592;2023-12-07T11:15:11;11;10;
82622;PMS5003;72291;55.002;-1.592;2023-12-07T11:20:01;11;10;
82622;PMS5003;72291;55.002;-1.592;2023-12-07T11:22:26;12;12;
82622;PMS5003;72291;55.002;-1.592;2023-12-07T11:24:53;11;10;
82622;PMS5003;72291;55.002;-1.592;2023-12-07T11:27:17;14;14;
82622;PMS5003;72291;55.002;-1.592;2023-12-07T11:29:42;15;13;
82622;PMS5003;72291;55.002;-1.592;2023-12-07T11:32:07;14;13;
82622;PMS5003;72291;55.002;-1.592;2023-12-07T11:34:34;14;13;
82622;PMS5003;72291;55.002;-1.592;2023-12-07T11:36:58;13;13;
82622;PMS5003;72291;55.002;-1.592;2023-12-07T11:39:24;15;13;
82622;PMS5003;72291;55.002;-1.592;2023-12-07T11:41:49;14;14;
82622;PMS5003;72291;55.002;-1.592;2023-12-07T11:44:14;13;13;
82622;PMS5003;72291;55.002;-1.592;2023-12-07T11:46:39;14;13;
82622;PMS5003;72291;55.002;-1.592;2023-12-07T11:49:05;15;13;
82622;PMS5003;72291;55.002;-1.592;2023-12-07T11:51:30;15;15;
82622;PMS5003;72291;55.002;-1.592;2023-12-07T11:53:55;13;13;
82622;PMS5003;72291;55.002;-1.592;2023-12-07T11:56:20;13;13;
82622;PMS5003;72291;55.002;-1.592;2023-12-07T11:58:45;12;12;
82622;PMS5003;72291;55.002;-1.592;2023-12-07T12:01:11;10;10;
82622;PMS5003;72291;55.002;-1.592;2023-12-07T12:03:37;13;13;
82622;PMS5003;72291;55.002;-1.592;2023-12-07T12:06:03;11;11;
82622;PMS5003;72291;55.002;-1.592;2023-12-07T12:08:28;10;10;
82622;PMS5003;72291;55.002;-1.592;2023-12-07T12:10:54;12;11;
82622;PMS5003;72291;55.002;-1.592;2023-12-07T12:13:19;9;9;
82622;PMS5003;72291;55.002;-1.592;2023-12-07T12:15:45;11;11;
82622;PMS5003;72291;55.002;-1.592;2023-12-07T12:18:09;11;11;
82622;PMS5003;72291;55.002;-1.592;2023-12-07T12:20:35;14;12;
82622;PMS5003;72291;55.002;-1.592;2023-12-07T12:23:00;12;11;
82622;PMS5003;72291;55.002;-1.592;2023-12-07T12:25:27;11;10;
82622;PMS5003;72291;55.002;-1.592;2023-12-07T12:27:52;12;11;
82622;PMS5003;72291;55.002;-1.592;2023-12-07T12:30:17;15;14;
82622;PMS5003;72291;55.002;-1.592;2023-12-07T12:32:42;11;10;
82622;PMS5003;72291;55.002;-1.592;2023-12-07T12:35:08;12;10;
82622;PMS5003;72291;55.002;-1.592;2023-12-07T12:37:32;13;12;
82622;PMS5003;72291;55.002;-1.592;2023-12-07T12:39:58;13;10;
82622;PMS5003;72291;55.002;-1.592;2023-12-07T12:42:23;12;12;
82622;PMS5003;72291;55.002;-1.592;2023-12-07T12:44:48;18;17;
82622;PMS5003;72291;55.002;-1.592;2023-12-07T12:47:13;14;13;
82622;PMS5003;72291;55.002;-1.592;2023-12-07T12:49:41;12;12;
82622;PMS5003;72291;55.002;-1.592;2023-12-07T12:52:05;17;16;
82622;PMS5003;72291;55.002;-1.592;2023-12-07T12:54:30;14;13;
82622;PMS5003;72291;55.002;-1.592;2023-12-07T12:56:56;13;13;
82622;PMS5003;72291;55.002;-1.592;2023-12-07T12:59:21;16;15;
82622;PMS5003;72291;55.002;-1.592;2023-12-07T13:01:47;16;16;
82622;PMS5003;72291;55.002;-1.592;2023-12-07T13:04:13;14;14;
82622;PMS5003;72291;55.002;-1.592;2023-12-07T13:06:39;19;18;
82622;PMS5003;72291;55.002;-1.592;2023-12-07T13:09:04;17;17;
82622;PMS5003;72291;55.002;-1.592;2023-12-07T13:11:29;16;15;
82622;PMS5003;72291;55.002;-1.592;2023-12-07T13:13:54;19;19;
82622;PMS5003;72291;55.002;-1.592;2023-12-07T13:16:20;22;20;
82622;PMS5003;72291;55.002;-1.592;2023-12-07T13:18:45;18;16;
82622;PMS5003;72291;55.002;-1.592;2023-12-07T13:21:11;20;19;
82622;PMS5003;72291;55.002;-1.592;2023-12-07T13:23:36;17;16;
82622;PMS5003;72291;55.002;-1.592;2023-12-07T13:26:01;19;17;
82622;PMS5003;72291;55.002;-1.592;2023-12-07T13:28:27;19;17;
82622;PMS5003;72291;55.002;-1.592;2023-12-07T13:30:52;20;19;
82622;PMS5003;72291;55.002;-1.592;2023-12-07T13:33:17;20;19;
82622;PMS5003;72291;55.002;-1.592;2023-12-07T13:35:43;20;18;
82622;PMS5003;72291;55.002;-1.592;2023-12-07T13:38:08;23;20;
82622;PMS5003;72291;55.002;-1.592;2023-12-07T13:40:34;22;20;
82622;PMS5003;72291;55.002;-1.592;2023-12-07T13:43:00;25;22;
82622;PMS5003;72291;55.002;-1.592;2023-12-07T13:45:25;21;20;
82622;PMS5003;72291;55.002;-1.592;2023-12-07T13:47:51;24;22;
82622;PMS5003;72291;55.002;-1.592;2023-12-07T13:50:22;23;21;
82622;PMS5003;72291;55.002;-1.592;2023-12-07T13:52:42;24;21;
82622;PMS5003;72291;55.002;-1.592;2023-12-07T13:55:08;21;20;
82622;PMS5003;72291;55.002;-1.592;2023-12-07T13:57:33;23;23;
82622;PMS5003;72291;55.002;-1.592;2023-12-07T13:59:59;27;24;
82622;PMS5003;72291;55.002;-1.592;2023-12-07T14:02:24;26;24;
82622;PMS5003;72291;55.002;-1.592;2023-12-07T14:04:50;22;21;
82622;PMS5003;72291;55.002;-1.592;2023-12-07T14:07:16;26;26;
82622;PMS5003;72291;55.002;-1.592;2023-12-07T14:09:41;24;23;
82622;PMS5003;72291;55.002;-1.592;2023-12-07T14:12:06;22;20;
82622;PMS5003;72291;55.002;-1.592;2023-12-07T14:14:31;24;22;
82622;PMS5003;72291;55.002;-1.592;2023-12-07T14:16:57;24;24;
82622;PMS5003;72291;55.002;-1.592;2023-12-07T14:19:22;28;27;
82622;PMS5003;72291;55.002;-1.592;2023-12-07T14:21:54;31;29;
82622;PMS5003;72291;55.002;-1.592;2023-12-07T14:24:14;25;24;
82622;PMS5003;72291;55.002;-1.592;2023-12-07T14:26:42;30;27;
82622;PMS5003;72291;55.002;-1.592;2023-12-07T14:29:05;31;30;
82622;PMS5003;72291;55.002;-1.592;2023-12-07T14:31:30;34;31;
82622;PMS5003;72291;55.002;-1.592;2023-12-07T14:33:55;34;33;
82622;PMS5003;72291;55.002;-1.592;2023-12-07T14:36:21;29;27;
82622;PMS5003;72291;55.002;-1.592;2023-12-07T14:38:46;25;25;
82622;PMS5003;72291;55.002;-1.592;2023-12-07T14:41:12;28;28;
82622;PMS5003;72291;55.002;-1.592;2023-12-07T14:43:37;37;34;
82622;PMS5003;72291;55.002;-1.592;2023-12-07T14:46:03;32;29;
82622;PMS5003;72291;55.002;-1.592;2023-12-07T14:48:28;32;31;
82622;PMS5003;72291;55.002;-1.592;2023-12-07T14:50:53;31;28;
82622;PMS5003;72291;55.002;-1.592;2023-12-07T14:53:19;29;29;
82622;PMS5003;72291;55.002;-1.592;2023-12-07T14:55:45;27;24;
82622;PMS5003;72291;55.002;-1.592;2023-12-07T14:58:10;32;25;
82622;PMS5003;72291;55.002;-1.592;2023-12-07T15:00:41;29;28;
82622;PMS5003;72291;55.002;-1.592;2023-12-07T15:03:01;23;23;
82622;PMS5003;72291;55.002;-1.592;2023-12-07T15:05:26;33;31;
82622;PMS5003;72291;55.002;-1.592;2023-12-07T15:07:52;34;31;
82622;PMS5003;72291;55.002;-1.592;2023-12-07T15:10:17;27;25;
82622;PMS5003;72291;55.002;-1.592;2023-12-07T15:12:43;24;23;
82622;PMS5003;72291;55.002;-1.592;2023-12-07T15:15:09;25;25;
82622;PMS5003;72291;55.002;-1.592;2023-12-07T15:17:34;26;24;
82622;PMS5003;72291;55.002;-1.592;2023-12-07T15:19:59;23;22;
82622;PMS5003;72291;55.002;-1.592;2023-12-07T15:22:25;30;27;
82622;PMS5003;72291;55.002;-1.592;2023-12-07T15:24:51;26;26;
82622;PMS5003;72291;55.002;-1.592;2023-12-07T15:27:17;22;20;
82622;PMS5003;72291;55.002;-1.592;2023-12-07T15:29:42;23;21;
82622;PMS5003;72291;55.002;-1.592;2023-12-07T15:32:08;26;25;
82622;PMS5003;72291;55.002;-1.592;2023-12-07T15:34:34;27;24;
82622;PMS5003;72291;55.002;-1.592;2023-12-07T15:37:00;22;20;
82622;PMS5003;72291;55.002;-1.592;2023-12-07T15:39:25;27;26;
82622;PMS5003;72291;55.002;-1.592;2023-12-07T15:41:51;36;34;
82622;PMS5003;72291;55.002;-1.592;2023-12-07T15:44:21;27;27;
82622;PMS5003;72291;55.002;-1.592;2023-12-07T15:46:42;28;26;
82622;PMS5003;72291;55.002;-1.592;2023-12-07T15:49:07;26;25;
82622;PMS5003;72291;55.002;-1.592;2023-12-07T15:51:33;32;30;
82622;PMS5003;72291;55.002;-1.592;2023-12-07T15:53:59;35;30;
82622;PMS5003;72291;55.002;-1.592;2023-12-07T15:56:24;25;23;
82622;PMS5003;72291;55.002;-1.592;2023-12-07T15:58:50;27;23;
82622;PMS5003;72291;55.002;-1.592;2023-12-07T16:01:15;27;27;
82622;PMS5003;72291;55.002;-1.592;2023-12-07T16:03:41;27;25;
82622;PMS5003;72291;55.002;-1.592;2023-12-07T16:06:07;27;22;
82622;PMS5003;72291;55.002;-1.592;2023-12-07T16:08:32;30;24;
82622;PMS5003;72291;55.002;-1.592;2023-12-07T16:10:58;24;24;